sensor_id;sensor_type;location;lat;lon;timestamp;pressure;altitude;pressure_sealevel;temperature;humidity
55576;BME280;41437;45.478;9.116;2023-02-13T00:02:48;101864.91;;;5.26;68.11
55576;BME280;41437;45.478;9.116;2023-02-13T00:05:50;101862.88;;;5.28;68.28
55576;BME280;41437;45.478;9.116;2023-02-13T00:08:53;101868.34;;;5.28;68.93
55576;BME280;41437;45.478;9.116;2023-02-13T00:11:57;101873.31;;;5.25;68.81
55576;BME280;41437;45.478;9.116;2023-02-13T00:14:59;101870.59;;;5.17;68.74
55576;BME280;41437;45.478;9.116;2023-02-13T00:18:03;101875.72;;;5.20;69.08
55576;BME280;41437;45.478;9.116;2023-02-13T00:21:09;101869.44;;;5.11;68.68
55576;BME280;41437;45.478;9.116;2023-02-13T00:24:12;101870.63;;;5.09;68.84
55576;BME280;41437;45.478;9.116;2023-02-13T00:27:14;101875.75;;;5.12;68.97
55576;BME280;41437;45.478;9.116;2023-02-13T00:30:16;101874.38;;;5.08;68.84
55576;BME280;41437;45.478;9.116;2023-02-13T00:33:18;101875.94;;;5.10;68.24
55576;BME280;41437;45.478;9.116;2023-02-13T00:36:21;101878.16;;;4.98;68.56
55576;BME280;41437;45.478;9.116;2023-02-13T00:39:24;101870.31;;;4.95;69.16
55576;BME280;41437;45.478;9.116;2023-02-13T00:42:26;101870.00;;;4.90;69.16
55576;BME280;41437;45.478;9.116;2023-02-13T00:45:27;101866.94;;;4.85;70.63
55576;BME280;41437;45.478;9.116;2023-02-13T00:48:31;101886.25;;;4.84;69.78
55576;BME280;41437;45.478;9.116;2023-02-13T00:51:33;101877.03;;;4.76;69.87
55576;BME280;41437;45.478;9.116;2023-02-13T00:54:36;101885.22;;;4.76;69.96
55576;BME280;41437;45.478;9.116;2023-02-13T00:57:38;101888.13;;;4.75;69.01
55576;BME280;41437;45.478;9.116;2023-02-13T01:00:39;101883.66;;;4.74;69.44
55576;BME280;41437;45.478;9.116;2023-02-13T01:03:41;101892.22;;;4.71;69.48
55576;BME280;41437;45.478;9.116;2023-02-13T01:06:43;101894.44;;;4.67;70.29
55576;BME280;41437;45.478;9.116;2023-02-13T01:09:46;101887.94;;;4.68;69.92
55576;BME280;41437;45.478;9.116;2023-02-13T01:12:47;101890.34;;;4.63;69.24
55576;BME280;41437;45.478;9.116;2023-02-13T01:15:50;101883.53;;;4.67;68.87
55576;BME280;41437;45.478;9.116;2023-02-13T01:18:51;101889.13;;;4.66;68.58
55576;BME280;41437;45.478;9.116;2023-02-13T01:21:53;101890.88;;;4.67;68.74
55576;BME280;41437;45.478;9.116;2023-02-13T01:24:56;101888.13;;;4.67;68.63
55576;BME280;41437;45.478;9.116;2023-02-13T01:27:58;101891.00;;;4.65;68.34
55576;BME280;41437;45.478;9.116;2023-02-13T01:30:59;101894.97;;;4.63;69.62
55576;BME280;41437;45.478;9.116;2023-02-13T01:34:01;101893.59;;;4.59;69.50
55576;BME280;41437;45.478;9.116;2023-02-13T01:37:03;101899.38;;;4.56;68.77
55576;BME280;41437;45.478;9.116;2023-02-13T01:40:09;101897.69;;;4.54;68.97
55576;BME280;41437;45.478;9.116;2023-02-13T01:43:11;101900.59;;;4.53;71.00
55576;BME280;41437;45.478;9.116;2023-02-13T01:46:15;101901.44;;;4.53;71.53
55576;BME280;41437;45.478;9.116;2023-02-13T01:49:20;101904.31;;;4.44;71.13
55576;BME280;41437;45.478;9.116;2023-02-13T01:52:23;101896.50;;;4.41;71.04
55576;BME280;41437;45.478;9.116;2023-02-13T01:55:26;101902.47;;;4.44;71.28
55576;BME280;41437;45.478;9.116;2023-02-13T01:58:29;101902.81;;;4.41;70.97
55576;BME280;41437;45.478;9.116;2023-02-13T02:01:33;101903.47;;;4.43;70.74
55576;BME280;41437;45.478;9.116;2023-02-13T02:04:37;101897.69;;;4.38;71.50
55576;BME280;41437;45.478;9.116;2023-02-13T02:07:42;101901.25;;;4.31;72.30
55576;BME280;41437;45.478;9.116;2023-02-13T02:10:45;101892.22;;;4.30;72.65
55576;BME280;41437;45.478;9.116;2023-02-13T02:13:47;101889.84;;;4.27;73.33
55576;BME280;41437;45.478;9.116;2023-02-13T02:16:50;101897.50;;;4.23;72.34
55576;BME280;41437;45.478;9.116;2023-02-13T02:20:00;101888.47;;;4.15;73.12
55576;BME280;41437;45.478;9.116;2023-02-13T02:23:22;101890.16;;;4.16;75.03
55576;BME280;41437;45.478;9.116;2023-02-13T02:26:57;101892.38;;;4.12;74.51
55576;BME280;41437;45.478;9.116;2023-02-13T02:33:38;101895.25;;;4.02;74.64
55576;BME280;41437;45.478;9.116;2023-02-13T02:36:55;101881.78;;;3.93;74.74
55576;BME280;41437;45.478;9.116;2023-02-13T02:40:11;101895.56;;;3.83;74.72
55576;BME280;41437;45.478;9.116;2023-02-13T02:43:27;101896.03;;;3.78;75.59
55576;BME280;41437;45.478;9.116;2023-02-13T02:46:35;101893.13;;;3.72;75.72
55576;BME280;41437;45.478;9.116;2023-02-13T02:49:41;101887.94;;;3.52;75.51
55576;BME280;41437;45.478;9.116;2023-02-13T02:53:08;101885.84;;;3.38;76.74
55576;BME280;41437;45.478;9.116;2023-02-13T02:56:16;101887.41;;;3.41;77.99
55576;BME280;41437;45.478;9.116;2023-02-13T02:59:20;101882.41;;;3.28;75.48
55576;BME280;41437;45.478;9.116;2023-02-13T03:02:40;101890.44;;;3.03;76.51
55576;BME280;41437;45.478;9.116;2023-02-13T03:06:02;101886.56;;;3.06;77.75
55576;BME280;41437;45.478;9.116;2023-02-13T03:09:15;101882.75;;;2.99;77.81
55576;BME280;41437;45.478;9.116;2023-02-13T03:12:40;101883.16;;;3.12;80.03
55576;BME280;41437;45.478;9.116;2023-02-13T03:16:03;101887.78;;;3.12;79.93
55576;BME280;41437;45.478;9.116;2023-02-13T03:19:30;101894.59;;;3.16;79.31
55576;BME280;41437;45.478;9.116;2023-02-13T03:23:06;101894.19;;;3.02;77.81
55576;BME280;41437;45.478;9.116;2023-02-13T03:26:28;101891.34;;;2.86;77.99
55576;BME280;41437;45.478;9.116;2023-02-13T03:29:50;101892.16;;;2.78;78.58
55576;BME280;41437;45.478;9.116;2023-02-13T03:33:17;101879.66;;;2.68;79.20
55576;BME280;41437;45.478;9.116;2023-02-13T03:36:33;101880.47;;;2.60;81.31
55576;BME280;41437;45.478;9.116;2023-02-13T03:39:59;101894.88;;;2.78;82.68
55576;BME280;41437;45.478;9.116;2023-02-13T03:43:07;101888.00;;;2.66;81.18
55576;BME280;41437;45.478;9.116;2023-02-13T03:46:12;101896.53;;;2.71;81.72
55576;BME280;41437;45.478;9.116;2023-02-13T03:49:20;101894.38;;;2.75;82.11
55576;BME280;41437;45.478;9.116;2023-02-13T03:52:43;101898.41;;;2.71;82.63
55576;BME280;41437;45.478;9.116;2023-02-13T03:55:50;101894.84;;;2.70;82.61
55576;BME280;41437;45.478;9.116;2023-02-13T03:59:17;101899.75;;;2.67;83.84
55576;BME280;41437;45.478;9.116;2023-02-13T04:02:24;101901.44;;;2.68;82.46
55576;BME280;41437;45.478;9.116;2023-02-13T04:05:32;101899.09;;;2.73;83.39
55576;BME280;41437;45.478;9.116;2023-02-13T04:08:36;101900.59;;;2.67;83.91
55576;BME280;41437;45.478;9.116;2023-02-13T04:11:42;101893.75;;;2.63;84.26
55576;BME280;41437;45.478;9.116;2023-02-13T04:14:53;101910.63;;;2.67;84.32
55576;BME280;41437;45.478;9.116;2023-02-13T04:18:03;101902.09;;;2.62;83.63
55576;BME280;41437;45.478;9.116;2023-02-13T04:21:06;101899.19;;;2.63;84.49
55576;BME280;41437;45.478;9.116;2023-02-13T04:24:09;101911.19;;;2.70;84.23
55576;BME280;41437;45.478;9.116;2023-02-13T04:27:14;101909.97;;;2.73;84.12
55576;BME280;41437;45.478;9.116;2023-02-13T04:30:16;101913.41;;;2.75;82.94
55576;BME280;41437;45.478;9.116;2023-02-13T04:33:18;101909.50;;;2.77;83.69
55576;BME280;41437;45.478;9.116;2023-02-13T04:36:20;101901.13;;;2.71;83.28
55576;BME280;41437;45.478;9.116;2023-02-13T04:39:21;101903.88;;;2.71;83.65
55576;BME280;41437;45.478;9.116;2023-02-13T04:42:24;101909.31;;;2.71;83.60
55576;BME280;41437;45.478;9.116;2023-02-13T04:45:25;101901.75;;;2.65;83.38
55576;BME280;41437;45.478;9.116;2023-02-13T04:48:27;101893.94;;;2.62;84.92
55576;BME280;41437;45.478;9.116;2023-02-13T04:51:29;101897.25;;;2.56;84.38
55576;BME280;41437;45.478;9.116;2023-02-13T04:54:30;101897.44;;;2.54;84.32
55576;BME280;41437;45.478;9.116;2023-02-13T04:57:33;101898.47;;;2.53;84.80
55576;BME280;41437;45.478;9.116;2023-02-13T05:00:35;101896.03;;;2.50;83.95
55576;BME280;41437;45.478;9.116;2023-02-13T05:03:37;101894.56;;;2.38;84.04
55576;BME280;41437;45.478;9.116;2023-02-13T05:06:38;101894.66;;;2.28;85.59
55576;BME280;41437;45.478;9.116;2023-02-13T05:09:40;101898.88;;;2.22;86.06
55576;BME280;41437;45.478;9.116;2023-02-13T05:12:43;101901.66;;;2.13;85.62
55576;BME280;41437;45.478;9.116;2023-02-13T05:15:46;101886.91;;;1.97;86.01
55576;BME280;41437;45.478;9.116;2023-02-13T05:18:47;101896.47;;;2.01;87.21
55576;BME280;41437;45.478;9.116;2023-02-13T05:21:49;101891.84;;;1.84;87.91
55576;BME280;41437;45.478;9.116;2023-02-13T05:25:08;101892.63;;;1.94;87.75
55576;BME280;41437;45.478;9.116;2023-02-13T05:28:11;101892.94;;;1.91;86.43
55576;BME280;41437;45.478;9.116;2023-02-13T05:31:27;101896.19;;;1.77;87.40
55576;BME280;41437;45.478;9.116;2023-02-13T05:34:28;101897.69;;;1.89;88.66
55576;BME280;41437;45.478;9.116;2023-02-13T05:37:30;101893.75;;;2.01;88.51
55576;BME280;41437;45.478;9.116;2023-02-13T05:40:32;101895.13;;;2.06;87.29
55576;BME280;41437;45.478;9.116;2023-02-13T05:43:35;101887.91;;;2.14;87.30
55576;BME280;41437;45.478;9.116;2023-02-13T05:46:37;101898.00;;;2.04;86.76
55576;BME280;41437;45.478;9.116;2023-02-13T05:49:39;101889.84;;;2.04;87.69
55576;BME280;41437;45.478;9.116;2023-02-13T05:52:40;101899.47;;;1.98;88.33
55576;BME280;41437;45.478;9.116;2023-02-13T05:55:42;101890.69;;;1.87;88.29
55576;BME280;41437;45.478;9.116;2023-02-13T05:58:45;101891.56;;;1.87;89.33
55576;BME280;41437;45.478;9.116;2023-02-13T06:01:46;101906.13;;;1.86;88.65
55576;BME280;41437;45.478;9.116;2023-02-13T06:04:48;101900.69;;;1.86;88.60
55576;BME280;41437;45.478;9.116;2023-02-13T06:07:49;101901.13;;;1.64;86.93
55576;BME280;41437;45.478;9.116;2023-02-13T06:10:51;101901.63;;;1.77;88.88
55576;BME280;41437;45.478;9.116;2023-02-13T06:13:54;101904.72;;;1.82;88.55
55576;BME280;41437;45.478;9.116;2023-02-13T06:16:55;101909.56;;;1.88;88.77
55576;BME280;41437;45.478;9.116;2023-02-13T06:19:57;101918.97;;;1.94;88.19
55576;BME280;41437;45.478;9.116;2023-02-13T06:22:58;101906.41;;;1.93;87.65
55576;BME280;41437;45.478;9.116;2023-02-13T06:26:03;101917.50;;;1.99;87.34
55576;BME280;41437;45.478;9.116;2023-02-13T06:29:06;101913.47;;;2.04;86.65
55576;BME280;41437;45.478;9.116;2023-02-13T06:32:08;101921.53;;;2.13;86.44
55576;BME280;41437;45.478;9.116;2023-02-13T06:35:10;101930.09;;;2.00;84.99
55576;BME280;41437;45.478;9.116;2023-02-13T06:38:11;101926.44;;;1.92;84.70
55576;BME280;41437;45.478;9.116;2023-02-13T06:41:13;101928.50;;;1.80;88.05
55576;BME280;41437;45.478;9.116;2023-02-13T06:44:16;101925.88;;;1.88;87.94
55576;BME280;41437;45.478;9.116;2023-02-13T06:47:17;101929.16;;;2.10;85.84
55576;BME280;41437;45.478;9.116;2023-02-13T06:50:19;101926.84;;;2.15;83.85
55576;BME280;41437;45.478;9.116;2023-02-13T06:53:24;101930.97;;;2.19;84.41
55576;BME280;41437;45.478;9.116;2023-02-13T06:56:25;101924.19;;;2.23;85.17
55576;BME280;41437;45.478;9.116;2023-02-13T06:59:28;101935.63;;;2.26;85.60
55576;BME280;41437;45.478;9.116;2023-02-13T07:02:30;101929.00;;;2.29;86.24
55576;BME280;41437;45.478;9.116;2023-02-13T07:05:32;101933.50;;;2.38;85.53
55576;BME280;41437;45.478;9.116;2023-02-13T07:08:33;101939.75;;;2.48;85.19
55576;BME280;41437;45.478;9.116;2023-02-13T07:11:35;101941.44;;;2.49;84.78
55576;BME280;41437;45.478;9.116;2023-02-13T07:14:41;101946.25;;;2.56;84.76
55576;BME280;41437;45.478;9.116;2023-02-13T07:17:43;101946.88;;;2.67;84.39
55576;BME280;41437;45.478;9.116;2023-02-13T07:20:44;101945.75;;;2.78;81.74
55576;BME280;41437;45.478;9.116;2023-02-13T07:23:46;101945.50;;;2.89;80.52
55576;BME280;41437;45.478;9.116;2023-02-13T07:26:47;101942.13;;;2.95;80.15
55576;BME280;41437;45.478;9.116;2023-02-13T07:29:50;101954.16;;;3.11;78.68
55576;BME280;41437;45.478;9.116;2023-02-13T07:32:59;101951.84;;;3.24;77.34
55576;BME280;41437;45.478;9.116;2023-02-13T07:36:02;101958.56;;;3.38;75.94
55576;BME280;41437;45.478;9.116;2023-02-13T07:39:06;101969.69;;;3.44;76.42
55576;BME280;41437;45.478;9.116;2023-02-13T07:42:07;101963.91;;;3.47;77.73
55576;BME280;41437;45.478;9.116;2023-02-13T07:45:10;101967.19;;;3.59;77.10
55576;BME280;41437;45.478;9.116;2023-02-13T07:48:16;101960.94;;;3.67;76.47
55576;BME280;41437;45.478;9.116;2023-02-13T07:51:18;101951.94;;;3.74;75.56
55576;BME280;41437;45.478;9.116;2023-02-13T07:54:20;101971.53;;;3.78;72.51
55576;BME280;41437;45.478;9.116;2023-02-13T07:57:21;101966.00;;;3.53;73.29
55576;BME280;41437;45.478;9.116;2023-02-13T08:00:24;101967.00;;;3.52;74.20
55576;BME280;41437;45.478;9.116;2023-02-13T08:03:26;101964.75;;;3.48;76.47
55576;BME280;41437;45.478;9.116;2023-02-13T08:06:27;101974.22;;;3.70;76.19
55576;BME280;41437;45.478;9.116;2023-02-13T08:09:29;101970.53;;;3.87;76.28
55576;BME280;41437;45.478;9.116;2023-02-13T08:13:03;101981.72;;;4.10;74.75
55576;BME280;41437;45.478;9.116;2023-02-13T08:16:06;101974.09;;;4.30;74.73
55576;BME280;41437;45.478;9.116;2023-02-13T08:19:07;101970.50;;;4.29;76.07
55576;BME280;41437;45.478;9.116;2023-02-13T08:22:09;101980.28;;;4.48;75.76
55576;BME280;41437;45.478;9.116;2023-02-13T08:25:11;101972.94;;;4.57;73.48
55576;BME280;41437;45.478;9.116;2023-02-13T08:28:13;101979.59;;;4.71;71.98
55576;BME280;41437;45.478;9.116;2023-02-13T08:31:16;101984.03;;;4.80;72.54
55576;BME280;41437;45.478;9.116;2023-02-13T08:34:18;101984.06;;;4.88;71.61
55576;BME280;41437;45.478;9.116;2023-02-13T08:37:19;101986.09;;;5.02;73.35
55576;BME280;41437;45.478;9.116;2023-02-13T08:40:21;101975.66;;;5.14;73.27
55576;BME280;41437;45.478;9.116;2023-02-13T08:43:23;101971.69;;;5.25;70.91
55576;BME280;41437;45.478;9.116;2023-02-13T08:46:26;101965.72;;;5.29;71.53
55576;BME280;41437;45.478;9.116;2023-02-13T08:49:27;101967.56;;;5.37;70.99
55576;BME280;41437;45.478;9.116;2023-02-13T08:52:29;101977.81;;;5.43;69.77
55576;BME280;41437;45.478;9.116;2023-02-13T08:55:31;101965.16;;;5.50;69.05
55576;BME280;41437;45.478;9.116;2023-02-13T08:58:33;101972.63;;;5.57;67.96
55576;BME280;41437;45.478;9.116;2023-02-13T09:01:36;101962.66;;;5.80;66.67
55576;BME280;41437;45.478;9.116;2023-02-13T09:04:37;101969.16;;;5.79;66.46
55576;BME280;41437;45.478;9.116;2023-02-13T09:07:39;101970.66;;;5.82;66.94
55576;BME280;41437;45.478;9.116;2023-02-13T09:10:41;101971.69;;;5.89;66.35
55576;BME280;41437;45.478;9.116;2023-02-13T09:13:44;101966.09;;;6.13;64.21
55576;BME280;41437;45.478;9.116;2023-02-13T09:16:48;101965.16;;;6.29;64.51
55576;BME280;41437;45.478;9.116;2023-02-13T09:19:50;101966.25;;;6.43;65.03
55576;BME280;41437;45.478;9.116;2023-02-13T09:22:53;101958.34;;;6.48;63.27
55576;BME280;41437;45.478;9.116;2023-02-13T09:25:57;101969.06;;;6.58;63.09
55576;BME280;41437;45.478;9.116;2023-02-13T09:28:59;101966.44;;;6.64;64.14
55576;BME280;41437;45.478;9.116;2023-02-13T09:32:03;101963.09;;;6.77;63.63
55576;BME280;41437;45.478;9.116;2023-02-13T09:35:05;101966.75;;;6.92;63.22
55576;BME280;41437;45.478;9.116;2023-02-13T09:38:06;101961.78;;;7.11;61.86
55576;BME280;41437;45.478;9.116;2023-02-13T09:41:10;101960.06;;;7.10;63.07
55576;BME280;41437;45.478;9.116;2023-02-13T09:44:17;101959.53;;;7.29;62.32
55576;BME280;41437;45.478;9.116;2023-02-13T09:47:36;101962.25;;;7.29;63.49
55576;BME280;41437;45.478;9.116;2023-02-13T09:50:40;101956.69;;;7.37;63.43
55576;BME280;41437;45.478;9.116;2023-02-13T09:53:46;101959.63;;;7.50;63.26
55576;BME280;41437;45.478;9.116;2023-02-13T09:56:54;101958.03;;;7.71;62.09
55576;BME280;41437;45.478;9.116;2023-02-13T10:00:05;101954.50;;;7.77;61.77
55576;BME280;41437;45.478;9.116;2023-02-13T10:03:18;101956.09;;;7.86;62.38
55576;BME280;41437;45.478;9.116;2023-02-13T10:06:26;101960.28;;;7.97;60.95
55576;BME280;41437;45.478;9.116;2023-02-13T10:09:32;101962.19;;;8.18;60.04
55576;BME280;41437;45.478;9.116;2023-02-13T10:12:51;101953.72;;;8.34;58.29
55576;BME280;41437;45.478;9.116;2023-02-13T10:16:02;101952.84;;;8.48;57.71
55576;BME280;41437;45.478;9.116;2023-02-13T10:19:17;101954.09;;;8.67;57.55
55576;BME280;41437;45.478;9.116;2023-02-13T10:22:25;101960.78;;;8.79;57.50
55576;BME280;41437;45.478;9.116;2023-02-13T10:25:41;101953.38;;;8.80;56.20
55576;BME280;41437;45.478;9.116;2023-02-13T10:28:46;101951.53;;;8.87;57.28
55576;BME280;41437;45.478;9.116;2023-02-13T10:32:13;101940.38;;;8.95;56.52
55576;BME280;41437;45.478;9.116;2023-02-13T10:35:22;101941.34;;;9.09;56.21
55576;BME280;41437;45.478;9.116;2023-02-13T10:38:28;101936.16;;;9.21;55.88
55576;BME280;41437;45.478;9.116;2023-02-13T10:41:39;101937.75;;;9.37;55.18
55576;BME280;41437;45.478;9.116;2023-02-13T10:44:58;101927.75;;;9.64;53.44
55576;BME280;41437;45.478;9.116;2023-02-13T10:48:17;101934.19;;;9.84;53.47
55576;BME280;41437;45.478;9.116;2023-02-13T10:51:32;101924.53;;;10.08;52.25
55576;BME280;41437;45.478;9.116;2023-02-13T10:54:51;101922.91;;;10.27;51.14
55576;BME280;41437;45.478;9.116;2023-02-13T10:58:08;101904.50;;;10.27;50.63
55576;BME280;41437;45.478;9.116;2023-02-13T11:01:18;101916.38;;;10.28;50.86
55576;BME280;41437;45.478;9.116;2023-02-13T11:04:22;101908.03;;;10.15;51.67
55576;BME280;41437;45.478;9.116;2023-02-13T11:07:26;101914.03;;;10.25;51.64
55576;BME280;41437;45.478;9.116;2023-02-13T11:10:28;101911.06;;;10.40;51.35
55576;BME280;41437;45.478;9.116;2023-02-13T11:13:30;101908.16;;;10.68;50.17
55576;BME280;41437;45.478;9.116;2023-02-13T11:16:38;101908.34;;;10.60;50.23
55576;BME280;41437;45.478;9.116;2023-02-13T11:19:47;101898.19;;;10.73;49.13
55576;BME280;41437;45.478;9.116;2023-02-13T11:22:52;101889.28;;;10.91;48.38
55576;BME280;41437;45.478;9.116;2023-02-13T11:25:56;101895.63;;;10.98;47.76
55576;BME280;41437;45.478;9.116;2023-02-13T11:28:59;101899.03;;;11.07;47.01
55576;BME280;41437;45.478;9.116;2023-02-13T11:32:05;101890.94;;;11.12;47.66
55576;BME280;41437;45.478;9.116;2023-02-13T11:35:27;101888.16;;;11.19;47.43
55576;BME280;41437;45.478;9.116;2023-02-13T11:38:30;101884.09;;;11.35;47.25
55576;BME280;41437;45.478;9.116;2023-02-13T11:41:38;101879.84;;;11.45;46.24
55576;BME280;41437;45.478;9.116;2023-02-13T11:44:42;101879.16;;;11.63;46.53
55576;BME280;41437;45.478;9.116;2023-02-13T11:47:44;101866.66;;;11.47;47.05
55576;BME280;41437;45.478;9.116;2023-02-13T11:50:51;101871.31;;;11.53;47.09
55576;BME280;41437;45.478;9.116;2023-02-13T11:53:56;101867.25;;;11.63;46.32
55576;BME280;41437;45.478;9.116;2023-02-13T11:57:18;101867.69;;;11.60;45.97
55576;BME280;41437;45.478;9.116;2023-02-13T12:00:28;101861.75;;;11.63;45.94
55576;BME280;41437;45.478;9.116;2023-02-13T12:03:31;101862.84;;;11.48;45.31
55576;BME280;41437;45.478;9.116;2023-02-13T12:06:33;101867.59;;;11.28;45.91
55576;BME280;41437;45.478;9.116;2023-02-13T12:09:43;101855.63;;;11.47;45.50
55576;BME280;41437;45.478;9.116;2023-02-13T12:12:52;101853.47;;;11.63;45.53
55576;BME280;41437;45.478;9.116;2023-02-13T12:15:58;101859.16;;;11.68;45.16
55576;BME280;41437;45.478;9.116;2023-02-13T12:19:04;101858.28;;;11.74;44.65
55576;BME280;41437;45.478;9.116;2023-02-13T12:22:17;101850.34;;;11.97;44.36
55576;BME280;41437;45.478;9.116;2023-02-13T12:25:39;101849.84;;;12.07;43.45
55576;BME280;41437;45.478;9.116;2023-02-13T12:28:52;101842.59;;;12.13;44.21
55576;BME280;41437;45.478;9.116;2023-02-13T12:32:03;101832.78;;;12.17;44.23
55576;BME280;41437;45.478;9.116;2023-02-13T12:35:43;101816.50;;;12.33;44.02
55576;BME280;41437;45.478;9.116;2023-02-13T12:39:01;101816.28;;;12.35;44.37
55576;BME280;41437;45.478;9.116;2023-02-13T12:42:20;101813.06;;;12.38;43.92
55576;BME280;41437;45.478;9.116;2023-02-13T12:45:32;101806.34;;;12.52;43.33
55576;BME280;41437;45.478;9.116;2023-02-13T12:48:44;101813.84;;;12.70;42.52
55576;BME280;41437;45.478;9.116;2023-02-13T12:51:53;101811.59;;;12.61;43.01
55576;BME280;41437;45.478;9.116;2023-02-13T12:55:10;101790.03;;;12.44;43.14
55576;BME280;41437;45.478;9.116;2023-02-13T12:58:42;101782.97;;;12.48;43.19
55576;BME280;41437;45.478;9.116;2023-02-13T13:02:20;101786.44;;;12.44;44.09
55576;BME280;41437;45.478;9.116;2023-02-13T13:05:43;101776.09;;;12.57;43.44
55576;BME280;41437;45.478;9.116;2023-02-13T13:12:43;101770.09;;;12.42;43.64
55576;BME280;41437;45.478;9.116;2023-02-13T13:15:54;101760.72;;;12.43;43.22
55576;BME280;41437;45.478;9.116;2023-02-13T13:19:04;101758.63;;;12.39;43.30
55576;BME280;41437;45.478;9.116;2023-02-13T13:22:11;101757.34;;;12.41;42.92
55576;BME280;41437;45.478;9.116;2023-02-13T13:25:20;101753.88;;;12.46;43.32
55576;BME280;41437;45.478;9.116;2023-02-13T13:28:28;101747.72;;;12.69;43.51
55576;BME280;41437;45.478;9.116;2023-02-13T13:31:35;101742.63;;;12.66;43.63
55576;BME280;41437;45.478;9.116;2023-02-13T13:34:38;101747.19;;;12.53;44.67
55576;BME280;41437;45.478;9.116;2023-02-13T13:37:44;101746.16;;;12.54;44.19
55576;BME280;41437;45.478;9.116;2023-02-13T13:41:05;101752.16;;;12.70;43.16
55576;BME280;41437;45.478;9.116;2023-02-13T13:44:18;101738.66;;;12.80;42.52
55576;BME280;41437;45.478;9.116;2023-02-13T13:47:46;101753.25;;;12.69;42.64
55576;BME280;41437;45.478;9.116;2023-02-13T13:50:51;101738.16;;;12.65;42.38
55576;BME280;41437;45.478;9.116;2023-02-13T13:54:17;101737.56;;;12.63;42.88
55576;BME280;41437;45.478;9.116;2023-02-13T13:57:19;101731.50;;;12.54;42.79
55576;BME280;41437;45.478;9.116;2023-02-13T14:00:24;101728.50;;;12.30;43.03
55576;BME280;41437;45.478;9.116;2023-02-13T14:03:36;101721.31;;;12.48;42.50
55576;BME280;41437;45.478;9.116;2023-02-13T14:07:14;101736.91;;;12.42;42.59
55576;BME280;41437;45.478;9.116;2023-02-13T14:17:54;101717.72;;;12.47;41.76
55576;BME280;41437;45.478;9.116;2023-02-13T14:20:59;101714.00;;;12.35;42.91
55576;BME280;41437;45.478;9.116;2023-02-13T14:24:01;101709.88;;;12.44;42.44
55576;BME280;41437;45.478;9.116;2023-02-13T14:27:03;101706.25;;;12.44;42.41
55576;BME280;41437;45.478;9.116;2023-02-13T14:30:21;101706.19;;;12.32;41.70
55576;BME280;41437;45.478;9.116;2023-02-13T14:33:27;101700.66;;;12.32;42.54
55576;BME280;41437;45.478;9.116;2023-02-13T14:36:33;101702.50;;;12.38;42.56
55576;BME280;41437;45.478;9.116;2023-02-13T14:39:36;101704.19;;;12.39;42.99
55576;BME280;41437;45.478;9.116;2023-02-13T14:42:43;101707.56;;;12.41;42.47
55576;BME280;41437;45.478;9.116;2023-02-13T14:45:50;101698.66;;;12.39;42.67
55576;BME280;41437;45.478;9.116;2023-02-13T14:48:57;101697.19;;;12.37;42.70
55576;BME280;41437;45.478;9.116;2023-02-13T14:52:03;101704.03;;;12.52;42.80
55576;BME280;41437;45.478;9.116;2023-02-13T14:55:12;101692.53;;;12.55;42.63
55576;BME280;41437;45.478;9.116;2023-02-13T14:58:22;101687.91;;;12.49;42.09
55576;BME280;41437;45.478;9.116;2023-02-13T15:01:29;101686.91;;;12.44;42.21
55576;BME280;41437;45.478;9.116;2023-02-13T15:04:36;101693.97;;;12.40;42.45
55576;BME280;41437;45.478;9.116;2023-02-13T15:07:45;101691.88;;;12.35;42.23
55576;BME280;41437;45.478;9.116;2023-02-13T15:10:49;101690.66;;;12.31;41.81
55576;BME280;41437;45.478;9.116;2023-02-13T15:13:51;101693.69;;;12.23;42.08
55576;BME280;41437;45.478;9.116;2023-02-13T15:16:55;101681.78;;;12.22;42.49
55576;BME280;41437;45.478;9.116;2023-02-13T15:20:05;101685.25;;;12.18;42.55
55576;BME280;41437;45.478;9.116;2023-02-13T15:23:18;101679.28;;;12.21;41.67
55576;BME280;41437;45.478;9.116;2023-02-13T15:26:22;101677.09;;;12.23;41.64
55576;BME280;41437;45.478;9.116;2023-02-13T15:29:26;101683.03;;;12.26;42.46
55576;BME280;41437;45.478;9.116;2023-02-13T15:32:30;101676.53;;;12.39;41.33
55576;BME280;41437;45.478;9.116;2023-02-13T15:35:34;101677.22;;;12.35;41.89
55576;BME280;41437;45.478;9.116;2023-02-13T15:38:38;101670.97;;;12.21;41.79
55576;BME280;41437;45.478;9.116;2023-02-13T15:41:43;101667.50;;;12.07;42.71
55576;BME280;41437;45.478;9.116;2023-02-13T15:44:47;101657.84;;;11.91;42.64
55576;BME280;41437;45.478;9.116;2023-02-13T15:47:50;101679.00;;;12.04;42.30
55576;BME280;41437;45.478;9.116;2023-02-13T15:50:52;101669.88;;;12.03;42.90
55576;BME280;41437;45.478;9.116;2023-02-13T15:53:56;101670.78;;;11.97;43.41
55576;BME280;41437;45.478;9.116;2023-02-13T15:57:00;101672.72;;;11.90;43.42
55576;BME280;41437;45.478;9.116;2023-02-13T16:00:04;101673.63;;;11.84;44.32
55576;BME280;41437;45.478;9.116;2023-02-13T16:03:14;101677.59;;;11.63;44.98
55576;BME280;41437;45.478;9.116;2023-02-13T16:06:19;101673.59;;;11.52;45.14
55576;BME280;41437;45.478;9.116;2023-02-13T16:09:29;101672.44;;;11.35;45.82
55576;BME280;41437;45.478;9.116;2023-02-13T16:12:31;101664.25;;;11.22;46.11
55576;BME280;41437;45.478;9.116;2023-02-13T16:15:34;101666.88;;;11.03;46.38
55576;BME280;41437;45.478;9.116;2023-02-13T16:18:38;101669.28;;;10.93;46.78
55576;BME280;41437;45.478;9.116;2023-02-13T16:21:40;101659.56;;;10.77;47.36
55576;BME280;41437;45.478;9.116;2023-02-13T16:24:47;101674.44;;;10.76;47.74
55576;BME280;41437;45.478;9.116;2023-02-13T16:27:52;101672.34;;;10.65;48.37
55576;BME280;41437;45.478;9.116;2023-02-13T16:30:58;101676.38;;;10.56;48.85
55576;BME280;41437;45.478;9.116;2023-02-13T16:34:12;101673.84;;;10.48;49.52
55576;BME280;41437;45.478;9.116;2023-02-13T16:37:28;101676.22;;;10.31;49.81
55576;BME280;41437;45.478;9.116;2023-02-13T16:40:37;101674.09;;;10.13;52.12
55576;BME280;41437;45.478;9.116;2023-02-13T16:43:43;101683.88;;;10.02;51.66